sensor_id;sensor_type;location;lat;lon;timestamp;pressure;altitude;pressure_sealevel;temperature;humidity
37486;BME280;23341;50.296;18.960;2022-08-18T00:04:20;151568.69;;;21.61;100.00
37486;BME280;23341;50.296;18.960;2022-08-18T00:09:38;151546.63;;;21.53;100.00
37486;BME280;23341;50.296;18.960;2022-08-18T00:14:43;151550.53;;;21.54;100.00
37486;BME280;23341;50.296;18.960;2022-08-18T00:19:48;151534.94;;;21.48;100.00
37486;BME280;23341;50.296;18.960;2022-08-18T00:24:54;151519.38;;;21.42;100.00
37486;BME280;23341;50.296;18.960;2022-08-18T00:30:00;151505.06;;;21.36;100.00
37486;BME280;23341;50.296;18.960;2022-08-18T00:35:08;151507.69;;;21.37;100.00
37486;BME280;23341;50.296;18.960;2022-08-18T00:40:14;151482.94;;;21.27;100.00
37486;BME280;23341;50.296;18.960;2022-08-18T00:45:22;151462.16;;;21.19;100.00
37486;BME280;23341;50.296;18.960;2022-08-18T00:50:32;151445.31;;;21.13;100.00
37486;BME280;23341;50.296;18.960;2022-08-18T00:55:37;151458.28;;;21.18;100.00
37486;BME280;23341;50.296;18.960;2022-08-18T01:00:52;151433.63;;;21.08;100.00
37486;BME280;23341;50.296;18.960;2022-08-18T01:06:00;151441.44;;;21.11;100.00
37486;BME280;23341;50.296;18.960;2022-08-18T01:11:04;151425.84;;;21.05;100.00
37486;BME280;23341;50.296;18.960;2022-08-18T01:16:07;151411.56;;;20.99;100.00
37486;BME280;23341;50.296;18.960;2022-08-18T01:21:27;151405.06;;;20.97;100.00
37486;BME280;23341;50.296;18.960;2022-08-18T01:26:51;151395.97;;;20.93;100.00
37486;BME280;23341;50.296;18.960;2022-08-18T01:31:54;151383.00;;;20.88;100.00
37486;BME280;23341;50.296;18.960;2022-08-18T01:36:57;151354.47;;;20.77;100.00
37486;BME280;23341;50.296;18.960;2022-08-18T01:42:03;151329.78;;;20.67;100.00
37486;BME280;23341;50.296;18.960;2022-08-18T01:47:07;151299.97;;;20.56;100.00
37486;BME280;23341;50.296;18.960;2022-08-18T01:52:15;151290.88;;;20.52;100.00
37486;BME280;23341;50.296;18.960;2022-08-18T01:57:23;151251.88;;;20.37;100.00
37486;BME280;23341;50.296;18.960;2022-08-18T02:02:29;151238.94;;;20.32;100.00
37486;BME280;23341;50.296;18.960;2022-08-18T02:07:35;151241.50;;;20.33;100.00
37486;BME280;23341;50.296;18.960;2022-08-18T02:12:42;151213.00;;;20.21;100.00
37486;BME280;23341;50.296;18.960;2022-08-18T02:17:46;151224.66;;;20.26;100.00
37486;BME280;23341;50.296;18.960;2022-08-18T02:22:50;151194.81;;;20.14;100.00
37486;BME280;23341;50.296;18.960;2022-08-18T02:27:55;151193.53;;;20.14;100.00
37486;BME280;23341;50.296;18.960;2022-08-18T02:32:59;151213.00;;;20.21;100.00
37486;BME280;23341;50.296;18.960;2022-08-18T02:38:04;151213.00;;;20.21;100.00
37486;BME280;23341;50.296;18.960;2022-08-18T02:43:10;151207.78;;;20.19;100.00
37486;BME280;23341;50.296;18.960;2022-08-18T02:48:13;151206.50;;;20.19;100.00
37486;BME280;23341;50.296;18.960;2022-08-18T02:53:16;151181.88;;;20.09;100.00
37486;BME280;23341;50.296;18.960;2022-08-18T02:58:25;151180.56;;;20.09;100.00
37486;BME280;23341;50.296;18.960;2022-08-18T03:03:34;151174.06;;;20.06;100.00
37486;BME280;23341;50.296;18.960;2022-08-18T03:08:38;151163.69;;;20.02;100.00
37486;BME280;23341;50.296;18.960;2022-08-18T04:20:45;151170.19;;;20.05;100.00
37486;BME280;23341;50.296;18.960;2022-08-18T04:26:02;151213.00;;;20.21;100.00
37486;BME280;23341;50.296;18.960;2022-08-18T04:31:09;151236.34;;;20.31;100.00
37486;BME280;23341;50.296;18.960;2022-08-18T04:36:15;151270.06;;;20.44;100.00
37486;BME280;23341;50.296;18.960;2022-08-18T04:41:22;151280.50;;;20.48;100.00
37486;BME280;23341;50.296;18.960;2022-08-18T04:46:29;151303.84;;;20.57;100.00
37486;BME280;23341;50.296;18.960;2022-08-18T04:51:41;151342.75;;;20.72;100.00
37486;BME280;23341;50.296;18.960;2022-08-18T04:57:09;151358.34;;;20.79;100.00
37486;BME280;23341;50.296;18.960;2022-08-18T05:02:14;151405.06;;;20.97;100.00
37486;BME280;23341;50.296;18.960;2022-08-18T05:07:21;151510.28;;;21.38;100.00
37486;BME280;23341;50.296;18.960;2022-08-18T05:12:24;151529.75;;;21.46;100.00
37486;BME280;23341;50.296;18.960;2022-08-18T05:17:28;151612.84;;;21.79;100.00
37486;BME280;23341;50.296;18.960;2022-08-18T05:22:37;151631.03;;;21.86;100.00
37486;BME280;23341;50.296;18.960;2022-08-18T05:27:42;151628.44;;;21.85;100.00
37486;BME280;23341;50.296;18.960;2022-08-18T05:32:46;151656.97;;;21.96;100.00
37486;BME280;23341;50.296;18.960;2022-08-18T05:38:12;151628.44;;;21.85;100.00
37486;BME280;23341;50.296;18.960;2022-08-18T05:43:19;151693.38;;;22.10;100.00
37486;BME280;23341;50.296;18.960;2022-08-18T05:48:23;151742.78;;;22.30;100.00
37486;BME280;23341;50.296;18.960;2022-08-18T05:53:28;151770.09;;;22.40;100.00
37486;BME280;23341;50.296;18.960;2022-08-18T05:58:50;151816.84;;;22.59;100.00
37486;BME280;23341;50.296;18.960;2022-08-18T06:04:00;151875.28;;;22.82;100.00
37486;BME280;23341;50.296;18.960;2022-08-18T06:09:11;152656.09;;;25.88;94.20
37486;BME280;23341;50.296;18.960;2022-08-18T06:14:15;153196.97;;;28.00;81.59
37486;BME280;23341;50.296;18.960;2022-08-18T06:19:37;153476.22;;;29.09;75.51
37486;BME280;23341;50.296;18.960;2022-08-18T06:24:50;153735.94;;;30.10;69.62
37486;BME280;23341;50.296;18.960;2022-08-18T06:30:03;153938.47;;;30.89;66.32
37486;BME280;23341;50.296;18.960;2022-08-18T06:35:18;154143.66;;;31.70;62.93
37486;BME280;23341;50.296;18.960;2022-08-18T06:40:24;154334.56;;;32.44;58.31
37486;BME280;23341;50.296;18.960;2022-08-18T06:45:33;154392.06;;;32.66;56.79
37486;BME280;23341;50.296;18.960;2022-08-18T06:50:48;154822.56;;;34.34;50.70
37486;BME280;23341;50.296;18.960;2022-08-18T06:55:54;155063.53;;;35.28;47.30
37486;BME280;23341;50.296;18.960;2022-08-18T07:01:00;155029.50;;;35.15;48.13
37486;BME280;23341;50.296;18.960;2022-08-18T07:06:08;155092.34;;;35.40;46.91
37486;BME280;23341;50.296;18.960;2022-08-18T07:11:19;155198.50;;;35.81;42.95
37486;BME280;23341;50.296;18.960;2022-08-18T07:16:30;154724.47;;;33.96;47.21
37486;BME280;23341;50.296;18.960;2022-08-18T07:22:01;154666.81;;;33.74;48.27
37486;BME280;23341;50.296;18.960;2022-08-18T07:27:08;154939.13;;;34.80;45.97
37486;BME280;23341;50.296;18.960;2022-08-18T07:32:17;154958.78;;;34.87;45.48
37486;BME280;23341;50.296;18.960;2022-08-18T07:37:26;155418.69;;;36.67;41.83
37486;BME280;23341;50.296;18.960;2022-08-18T07:42:47;155165.75;;;35.68;41.26
37486;BME280;23341;50.296;18.960;2022-08-18T07:48:09;155438.28;;;36.74;40.08
37486;BME280;23341;50.296;18.960;2022-08-18T07:53:41;155990.53;;;38.89;35.66
37486;BME280;23341;50.296;18.960;2022-08-18T07:59:02;156071.84;;;39.21;34.98
37486;BME280;23341;50.296;18.960;2022-08-18T08:04:15;155654.66;;;37.58;36.50
37486;BME280;23341;50.296;18.960;2022-08-18T08:09:35;156045.63;;;39.11;34.33
37486;BME280;23341;50.296;18.960;2022-08-18T08:14:43;156042.97;;;39.10;34.08
37486;BME280;23341;50.296;18.960;2022-08-18T08:19:58;155739.94;;;37.92;36.23
37486;BME280;23341;50.296;18.960;2022-08-18T08:25:11;155568.09;;;37.25;37.90
37486;BME280;23341;50.296;18.960;2022-08-18T08:30:51;155655.97;;;37.59;37.60
37486;BME280;23341;50.296;18.960;2022-08-18T08:36:22;155295.44;;;36.19;39.20
37486;BME280;23341;50.296;18.960;2022-08-18T08:41:31;155488.16;;;36.94;38.25
37486;BME280;23341;50.296;18.960;2022-08-18T08:46:43;155680.88;;;37.69;37.47
37486;BME280;23341;50.296;18.960;2022-08-18T08:51:52;155454.03;;;36.80;36.62
37486;BME280;23341;50.296;18.960;2022-08-18T08:57:00;154837.00;;;34.40;40.54
37486;BME280;23341;50.296;18.960;2022-08-18T09:02:21;154639.38;;;33.63;42.92
37486;BME280;23341;50.296;18.960;2022-08-18T09:13:33;154333.25;;;32.44;47.25
37486;BME280;23341;50.296;18.960;2022-08-18T09:18:49;154347.63;;;32.49;45.38
37486;BME280;23341;50.296;18.960;2022-08-18T09:24:05;154481.03;;;33.01;44.86
37486;BME280;23341;50.296;18.960;2022-08-18T09:29:15;154617.13;;;33.54;44.19
37486;BME280;23341;50.296;18.960;2022-08-18T09:34:38;154450.94;;;32.89;44.31
37486;BME280;23341;50.296;18.960;2022-08-18T09:39:54;154218.16;;;31.99;45.12
37486;BME280;23341;50.296;18.960;2022-08-18T09:51:33;154545.13;;;33.26;42.19
37486;BME280;23341;50.296;18.960;2022-08-18T09:57:06;154388.16;;;32.65;45.07
37486;BME280;23341;50.296;18.960;2022-08-18T10:08:42;154737.56;;;34.01;41.86
37486;BME280;23341;50.296;18.960;2022-08-18T10:14:03;154911.66;;;34.69;40.94
37486;BME280;23341;50.296;18.960;2022-08-18T10:19:15;154795.13;;;34.24;42.24
37486;BME280;23341;50.296;18.960;2022-08-18T10:24:40;154817.34;;;34.32;40.13
37486;BME280;23341;50.296;18.960;2022-08-18T10:29:52;154994.16;;;35.01;39.42
37486;BME280;23341;50.296;18.960;2022-08-18T10:34:57;154651.16;;;33.68;41.48
37486;BME280;23341;50.296;18.960;2022-08-18T10:40:12;154868.47;;;34.52;40.22
37486;BME280;23341;50.296;18.960;2022-08-18T10:45:24;154597.50;;;33.47;41.23
37486;BME280;23341;50.296;18.960;2022-08-18T10:50:34;154792.50;;;34.23;41.14
37486;BME280;23341;50.296;18.960;2022-08-18T10:55:49;154653.75;;;33.69;41.47
37486;BME280;23341;50.296;18.960;2022-08-18T11:01:04;154592.25;;;33.45;42.73
37486;BME280;23341;50.296;18.960;2022-08-18T11:06:16;154797.72;;;34.25;39.87
37486;BME280;23341;50.296;18.960;2022-08-18T11:11:27;154727.09;;;33.97;40.03
37486;BME280;23341;50.296;18.960;2022-08-18T11:16:48;154780.72;;;34.18;40.07
37486;BME280;23341;50.296;18.960;2022-08-18T11:21:55;154852.69;;;34.46;39.59
37486;BME280;23341;50.296;18.960;2022-08-18T11:27:02;154659.00;;;33.71;40.21
37486;BME280;23341;50.296;18.960;2022-08-18T11:32:21;154928.66;;;34.76;40.56
37486;BME280;23341;50.296;18.960;2022-08-18T11:37:28;154958.78;;;34.87;38.25
37486;BME280;23341;50.296;18.960;2022-08-18T11:42:56;155119.88;;;35.50;38.51
37486;BME280;23341;50.296;18.960;2022-08-18T11:48:15;154706.09;;;33.89;39.20
37486;BME280;23341;50.296;18.960;2022-08-18T11:53:51;154881.53;;;34.57;40.05
37486;BME280;23341;50.296;18.960;2022-08-18T11:59:02;154881.53;;;34.57;39.49
37486;BME280;23341;50.296;18.960;2022-08-18T12:04:13;154979.72;;;34.96;40.94
37486;BME280;23341;50.296;18.960;2022-08-18T12:09:21;154970.56;;;34.92;40.39
37486;BME280;23341;50.296;18.960;2022-08-18T12:14:54;155098.94;;;35.42;39.58
37486;BME280;23341;50.296;18.960;2022-08-18T12:20:14;154971.84;;;34.93;35.79
37486;BME280;23341;50.296;18.960;2022-08-18T12:25:19;155123.84;;;35.52;37.02
37486;BME280;23341;50.296;18.960;2022-08-18T12:30:28;155167.06;;;35.69;37.37
37486;BME280;23341;50.296;18.960;2022-08-18T12:35:33;155102.84;;;35.44;38.62
37486;BME280;23341;50.296;18.960;2022-08-18T12:40:37;155235.16;;;35.95;36.53
37486;BME280;23341;50.296;18.960;2022-08-18T12:45:42;155050.44;;;35.23;36.75
37486;BME280;23341;50.296;18.960;2022-08-18T12:50:47;155143.50;;;35.59;38.69
37486;BME280;23341;50.296;18.960;2022-08-18T12:56:01;155184.06;;;35.75;37.93
37486;BME280;23341;50.296;18.960;2022-08-18T13:01:06;155235.16;;;35.95;36.99
37486;BME280;23341;50.296;18.960;2022-08-18T13:06:11;155248.28;;;36.00;36.95
37486;BME280;23341;50.296;18.960;2022-08-18T13:11:18;155222.06;;;35.90;35.49
37486;BME280;23341;50.296;18.960;2022-08-18T13:16:31;155071.41;;;35.31;35.93
37486;BME280;23341;50.296;18.960;2022-08-18T13:21:55;154939.13;;;34.80;35.94
37486;BME280;23341;50.296;18.960;2022-08-18T13:27:01;154957.47;;;34.87;36.23
37486;BME280;23341;50.296;18.960;2022-08-18T13:32:20;155144.81;;;35.60;34.26
37486;BME280;23341;50.296;18.960;2022-08-18T13:37:25;155834.31;;;38.28;31.51
37486;BME280;23341;50.296;18.960;2022-08-18T13:42:29;156100.78;;;39.32;30.20
37486;BME280;23341;50.296;18.960;2022-08-18T13:47:53;156121.78;;;39.40;29.96
37486;BME280;23341;50.296;18.960;2022-08-18T13:52:59;156342.38;;;40.26;28.42
37486;BME280;23341;50.296;18.960;2022-08-18T13:58:06;156719.34;;;41.72;27.00
37486;BME280;23341;50.296;18.960;2022-08-18T14:03:23;156817.94;;;42.11;25.97
37486;BME280;23341;50.296;18.960;2022-08-18T14:08:49;156573.50;;;41.16;26.72
37486;BME280;23341;50.296;18.960;2022-08-18T14:13:54;156394.84;;;40.46;27.65
37486;BME280;23341;50.296;18.960;2022-08-18T14:19:00;156258.28;;;39.93;28.42
37486;BME280;23341;50.296;18.960;2022-08-18T14:24:24;156310.84;;;40.14;28.08
37486;BME280;23341;50.296;18.960;2022-08-18T14:29:50;155737.34;;;37.91;31.19
37486;BME280;23341;50.296;18.960;2022-08-18T14:34:58;155896.03;;;38.52;30.22
37486;BME280;23341;50.296;18.960;2022-08-18T14:40:22;155826.50;;;38.25;30.90
37486;BME280;23341;50.296;18.960;2022-08-18T14:45:28;155759.63;;;37.99;30.36
37486;BME280;23341;50.296;18.960;2022-08-18T14:50:38;155581.19;;;37.30;31.26
37486;BME280;23341;50.296;18.960;2022-08-18T14:55:51;155556.31;;;37.20;32.51
37486;BME280;23341;50.296;18.960;2022-08-18T15:00:58;155848.84;;;38.34;30.78
37486;BME280;23341;50.296;18.960;2022-08-18T15:06:04;155694.00;;;37.74;30.94
37486;BME280;23341;50.296;18.960;2022-08-18T15:11:09;155501.25;;;36.99;31.31
37486;BME280;23341;50.296;18.960;2022-08-18T15:16:14;155391.13;;;36.56;31.72
37486;BME280;23341;50.296;18.960;2022-08-18T15:21:19;155531.41;;;37.10;31.98
37486;BME280;23341;50.296;18.960;2022-08-18T15:26:40;155456.66;;;36.81;32.30
37486;BME280;23341;50.296;18.960;2022-08-18T15:31:44;154979.72;;;34.96;34.53
37486;BME280;23341;50.296;18.960;2022-08-18T15:36:53;154999.41;;;35.03;35.78
37486;BME280;23341;50.296;18.960;2022-08-18T15:41:57;154592.25;;;33.45;38.10
37486;BME280;23341;50.296;18.960;2022-08-18T15:47:05;154453.56;;;32.90;39.29
37486;BME280;23341;50.296;18.960;2022-08-18T15:52:12;154250.84;;;32.11;41.55
37486;BME280;23341;50.296;18.960;2022-08-18T15:57:18;154159.31;;;31.76;41.62
37486;BME280;23341;50.296;18.960;2022-08-18T16:02:41;154125.34;;;31.62;43.14
37486;BME280;23341;50.296;18.960;2022-08-18T16:07:53;153979.00;;;31.05;43.35
37486;BME280;23341;50.296;18.960;2022-08-18T16:12:58;153937.19;;;30.89;44.80
37486;BME280;23341;50.296;18.960;2022-08-18T16:18:03;153874.44;;;30.64;45.27
37486;BME280;23341;50.296;18.960;2022-08-18T16:23:09;153747.78;;;30.15;46.42
37486;BME280;23341;50.296;18.960;2022-08-18T16:28:13;153707.25;;;29.99;46.70
37486;BME280;23341;50.296;18.960;2022-08-18T16:33:16;153722.91;;;30.05;47.48
37486;BME280;23341;50.296;18.960;2022-08-18T16:38:21;153738.59;;;30.11;47.12
37486;BME280;23341;50.296;18.960;2022-08-18T16:43:25;153677.22;;;29.87;47.58
37486;BME280;23341;50.296;18.960;2022-08-18T16:48:28;153647.19;;;29.76;48.39
37486;BME280;23341;50.296;18.960;2022-08-18T16:53:33;153635.44;;;29.71;49.10
37486;BME280;23341;50.296;18.960;2022-08-18T16:58:41;153619.81;;;29.65;51.01
37486;BME280;23341;50.296;18.960;2022-08-18T17:04:02;153550.59;;;29.38;50.54
37486;BME280;23341;50.296;18.960;2022-08-18T17:09:17;153476.22;;;29.09;52.06
37486;BME280;23341;50.296;18.960;2022-08-18T17:14:24;153481.41;;;29.11;52.70
37486;BME280;23341;50.296;18.960;2022-08-18T17:19:30;153362.63;;;28.64;52.93
37486;BME280;23341;50.296;18.960;2022-08-18T17:24:36;153349.59;;;28.59;53.59
37486;BME280;23341;50.296;18.960;2022-08-18T17:29:58;153306.56;;;28.42;53.46
37486;BME280;23341;50.296;18.960;2022-08-18T17:35:04;153258.28;;;28.24;55.05
37486;BME280;23341;50.296;18.960;2022-08-18T17:40:14;153241.28;;;28.17;54.99
37486;BME280;23341;50.296;18.960;2022-08-18T17:45:20;153168.31;;;27.88;56.65
37486;BME280;23341;50.296;18.960;2022-08-18T17:50:29;153078.28;;;27.53;57.84
37486;BME280;23341;50.296;18.960;2022-08-18T17:55:58;153053.53;;;27.43;59.16
37486;BME280;23341;50.296;18.960;2022-08-18T18:01:05;153009.22;;;27.26;60.22
37486;BME280;23341;50.296;18.960;2022-08-18T18:06:13;152966.19;;;27.09;60.71
37486;BME280;23341;50.296;18.960;2022-08-18T18:11:28;152972.72;;;27.12;60.77
37486;BME280;23341;50.296;18.960;2022-08-18T18:16:33;152914.00;;;26.89;62.17
37486;BME280;23341;50.296;18.960;2022-08-18T18:21:37;152910.13;;;26.87;62.29
37486;BME280;23341;50.296;18.960;2022-08-18T18:27:22;152841.09;;;26.60;63.99
37486;BME280;23341;50.296;18.960;2022-08-18T18:32:29;152829.38;;;26.56;64.50
37486;BME280;23341;50.296;18.960;2022-08-18T18:37:42;152809.81;;;26.48;65.38
37486;BME280;23341;50.296;18.960;2022-08-18T18:42:49;152809.81;;;26.48;66.40
37486;BME280;23341;50.296;18.960;2022-08-18T18:48:02;152749.81;;;26.25;67.11
37486;BME280;23341;50.296;18.960;2022-08-18T18:53:21;152747.22;;;26.23;67.89
37486;BME280;23341;50.296;18.960;2022-08-18T18:58:36;152693.81;;;26.03;68.74
37486;BME280;23341;50.296;18.960;2022-08-18T19:03:52;152663.88;;;25.91;70.35
37486;BME280;23341;50.296;18.960;2022-08-18T19:09:05;152620.88;;;25.74;70.93
37486;BME280;23341;50.296;18.960;2022-08-18T19:14:16;152601.34;;;25.66;71.37
37486;BME280;23341;50.296;18.960;2022-08-18T19:19:24;152549.25;;;25.46;72.49
37486;BME280;23341;50.296;18.960;2022-08-18T19:24:46;152508.91;;;25.30;73.92
37486;BME280;23341;50.296;18.960;2022-08-18T19:29:58;152525.84;;;25.37;72.96
37486;BME280;23341;50.296;18.960;2022-08-18T19:35:06;152486.75;;;25.21;74.01
37486;BME280;23341;50.296;18.960;2022-08-18T19:40:16;152488.06;;;25.22;73.68
37486;BME280;23341;50.296;18.960;2022-08-18T19:45:29;152467.28;;;25.14;74.06
37486;BME280;23341;50.296;18.960;2022-08-18T19:50:39;152429.47;;;24.99;74.06
37486;BME280;23341;50.296;18.960;2022-08-18T19:55:55;152443.75;;;25.05;74.72
37486;BME280;23341;50.296;18.960;2022-08-18T20:01:06;152391.75;;;24.84;74.96
37486;BME280;23341;50.296;18.960;2022-08-18T20:06:43;152360.50;;;24.72;75.42
37486;BME280;23341;50.296;18.960;2022-08-18T20:12:06;152368.28;;;24.75;76.44
37486;BME280;23341;50.296;18.960;2022-08-18T20:17:17;152363.09;;;24.73;76.14
37486;BME280;23341;50.296;18.960;2022-08-18T20:22:31;152312.34;;;24.53;77.11
37486;BME280;23341;50.296;18.960;2022-08-18T20:27:37;152300.63;;;24.48;77.74
37486;BME280;23341;50.296;18.960;2022-08-18T20:32:42;152219.94;;;24.17;77.50
37486;BME280;23341;50.296;18.960;2022-08-18T20:37:46;152204.31;;;24.11;78.32
37486;BME280;23341;50.296;18.960;2022-08-18T20:42:49;152174.44;;;23.99;79.80
37486;BME280;23341;50.296;18.960;2022-08-18T20:48:22;152187.44;;;24.04;79.42
37486;BME280;23341;50.296;18.960;2022-08-18T20:58:58;152184.84;;;24.03;79.34
37486;BME280;23341;50.296;18.960;2022-08-18T21:04:11;152192.59;;;24.06;79.23
37486;BME280;23341;50.296;18.960;2022-08-18T21:09:16;152153.63;;;23.91;79.91
37486;BME280;23341;50.296;18.960;2022-08-18T21:14:23;152132.81;;;23.83;80.32
37486;BME280;23341;50.296;18.960;2022-08-18T21:19:39;152130.22;;;23.82;79.93
37486;BME280;23341;50.296;18.960;2022-08-18T21:24:44;152101.59;;;23.70;80.57
37486;BME280;23341;50.296;18.960;2022-08-18T21:29:51;152117.19;;;23.77;80.40
37486;BME280;23341;50.296;18.960;2022-08-18T21:34:58;152096.41;;;23.68;80.59
37486;BME280;23341;50.296;18.960;2022-08-18T21:40:11;152112.00;;;23.74;80.42
37486;BME280;23341;50.296;18.960;2022-08-18T21:45:21;152085.97;;;23.64;81.14
37486;BME280;23341;50.296;18.960;2022-08-18T21:50:27;152036.53;;;23.45;81.85
37486;BME280;23341;50.296;18.960;2022-08-18T21:55:34;152020.97;;;23.39;82.25
37486;BME280;23341;50.296;18.960;2022-08-18T22:00:42;152049.53;;;23.50;82.36
37486;BME280;23341;50.296;18.960;2022-08-18T22:05:56;152031.34;;;23.43;82.47
37486;BME280;23341;50.296;18.960;2022-08-18T22:11:25;152052.16;;;23.51;82.49
37486;BME280;23341;50.296;18.960;2022-08-18T22:17:27;152020.97;;;23.39;83.67
37486;BME280;23341;50.296;18.960;2022-08-18T22:22:33;152013.13;;;23.36;84.05
37486;BME280;23341;50.296;18.960;2022-08-18T22:27:56;152033.94;;;23.44;83.88
37486;BME280;23341;50.296;18.960;2022-08-18T22:33:01;152019.66;;;23.38;84.57
37486;BME280;23341;50.296;18.960;2022-08-18T22:38:06;152019.66;;;23.38;84.99
37486;BME280;23341;50.296;18.960;2022-08-18T22:43:09;151997.50;;;23.30;85.50
37486;BME280;23341;50.296;18.960;2022-08-18T22:48:13;151976.75;;;23.21;85.83
37486;BME280;23341;50.296;18.960;2022-08-18T22:53:19;151978.06;;;23.22;85.89
37486;BME280;23341;50.296;18.960;2022-08-18T22:58:22;151945.56;;;23.09;87.11
37486;BME280;23341;50.296;18.960;2022-08-18T23:03:29;151929.94;;;23.03;87.99
37486;BME280;23341;50.296;18.960;2022-08-18T23:08:39;151948.16;;;23.10;87.97
37486;BME280;23341;50.296;18.960;2022-08-18T23:13:58;151927.34;;;23.02;88.83
37486;BME280;23341;50.296;18.960;2022-08-18T23:19:02;151936.44;;;23.06;89.20
37486;BME280;23341;50.296;18.960;2022-08-18T23:24:08;151890.91;;;22.88;89.67
37486;BME280;23341;50.296;18.960;2022-08-18T23:29:12;151898.72;;;22.91;89.33
37486;BME280;23341;50.296;18.960;2022-08-18T23:34:17;151923.47;;;23.01;89.02
37486;BME280;23341;50.296;18.960;2022-08-18T23:39:23;151844.09;;;22.69;92.02
37486;BME280;23341;50.296;18.960;2022-08-18T23:44:28;151864.91;;;22.78;92.17
37486;BME280;23341;50.296;18.960;2022-08-18T23:49:31;151859.72;;;22.75;92.14
37486;BME280;23341;50.296;18.960;2022-08-18T23:54:38;151812.97;;;22.57;93.69
37486;BME280;23341;50.296;18.960;2022-08-18T23:59:42;151785.66;;;22.46;95.05
